createdAt,value
2022-10-13T00:01:11.938Z,17.75
2022-10-13T00:03:42.840Z,17.73
2022-10-13T00:06:12.296Z,17.72
2022-10-13T00:08:41.745Z,17.71
2022-10-13T00:11:12.852Z,17.69
2022-10-13T00:13:41.680Z,17.69
2022-10-13T00:16:10.911Z,17.70
2022-10-13T00:18:41.081Z,17.69
2022-10-13T00:21:10.913Z,17.69
2022-10-13T00:23:39.827Z,17.68
2022-10-13T00:26:11.242Z,17.67
2022-10-13T00:28:40.221Z,17.68
2022-10-13T00:31:16.989Z,17.66
2022-10-13T00:33:46.842Z,17.65
2022-10-13T00:36:15.130Z,17.64
2022-10-13T00:38:43.910Z,17.64
2022-10-13T00:41:12.357Z,17.65
2022-10-13T00:44:08.673Z,17.64
2022-10-13T00:46:37.790Z,17.64
2022-10-13T00:49:09.764Z,17.63
2022-10-13T00:51:41.986Z,17.63
2022-10-13T00:54:11.576Z,17.62
2022-10-13T00:56:40.237Z,17.60
2022-10-13T00:59:14.353Z,17.60
2022-10-13T01:01:42.955Z,17.59
2022-10-13T01:04:12.917Z,17.59
2022-10-13T01:06:41.548Z,17.58
2022-10-13T01:09:09.963Z,17.57
2022-10-13T01:11:59.002Z,17.56
2022-10-13T01:14:31.331Z,17.55
2022-10-13T01:17:06.160Z,17.55
2022-10-13T01:20:11.143Z,17.54
2022-10-13T01:22:52.119Z,17.55
2022-10-13T01:25:35.508Z,17.53
2022-10-13T01:28:14.971Z,17.53
2022-10-13T01:30:47.747Z,17.51
2022-10-13T01:33:24.921Z,17.51
2022-10-13T01:36:01.389Z,17.50
2022-10-13T01:38:36.252Z,17.48
2022-10-13T01:41:10.797Z,17.49
2022-10-13T01:43:41.883Z,17.48
2022-10-13T01:46:15.266Z,17.47
2022-10-13T01:48:45.335Z,17.47
2022-10-13T01:51:16.856Z,17.46
2022-10-13T01:53:46.806Z,17.46
2022-10-13T01:56:16.295Z,17.46
2022-10-13T01:58:46.715Z,17.45
2022-10-13T02:01:25.595Z,17.45
2022-10-13T02:03:59.368Z,17.44
2022-10-13T02:06:33.352Z,17.44
2022-10-13T02:09:05.381Z,17.44
2022-10-13T02:11:33.802Z,17.42
2022-10-13T02:14:06.458Z,17.41
2022-10-13T02:16:40.022Z,17.41
2022-10-13T02:19:11.234Z,17.40
2022-10-13T02:21:41.025Z,17.39
2022-10-13T02:24:09.961Z,17.39
2022-10-13T02:26:38.670Z,17.39
2022-10-13T02:29:14.192Z,17.38
2022-10-13T02:31:44.738Z,17.38
2022-10-13T02:34:14.130Z,17.37
2022-10-13T02:36:43.141Z,17.37
2022-10-13T02:39:12.284Z,17.36
2022-10-13T02:41:40.750Z,17.34
2022-10-13T02:44:09.056Z,17.35
2022-10-13T02:46:43.753Z,17.34
2022-10-13T02:49:12.225Z,17.34
2022-10-13T02:51:40.747Z,17.32
2022-10-13T02:54:09.484Z,17.32
2022-10-13T02:56:37.879Z,17.33
2022-10-13T02:59:06.170Z,17.33
2022-10-13T03:01:35.808Z,17.33
2022-10-13T03:04:05.686Z,17.32
2022-10-13T03:06:34.088Z,17.31
2022-10-13T03:09:02.413Z,17.31
2022-10-13T03:11:30.904Z,17.31
2022-10-13T03:13:59.242Z,17.30
2022-10-13T03:16:27.648Z,17.30
2022-10-13T03:18:56.108Z,17.30
2022-10-13T03:21:26.310Z,17.29
2022-10-13T03:23:54.782Z,17.29
2022-10-13T03:26:24.350Z,17.29
2022-10-13T03:28:52.951Z,17.29
2022-10-13T03:31:21.422Z,17.26
2022-10-13T03:33:49.853Z,17.26
2022-10-13T03:36:19.014Z,17.27
2022-10-13T03:38:52.192Z,17.24
2022-10-13T03:41:21.055Z,17.26
2022-10-13T03:43:51.768Z,17.26
2022-10-13T03:46:20.313Z,17.25
2022-10-13T03:48:48.958Z,17.23
2022-10-13T03:51:18.610Z,17.22
2022-10-13T03:53:47.364Z,17.22
2022-10-13T03:56:18.850Z,17.22
2022-10-13T03:58:54.468Z,17.22
2022-10-13T04:01:23.799Z,17.22
2022-10-13T04:03:53.849Z,17.21
2022-10-13T04:06:22.704Z,17.22
2022-10-13T04:08:51.624Z,17.21
2022-10-13T04:11:21.890Z,17.20
2022-10-13T04:13:53.467Z,17.19
2022-10-13T04:16:24.994Z,17.20
2022-10-13T04:18:56.360Z,17.19
2022-10-13T04:21:25.135Z,17.19
2022-10-13T04:23:57.047Z,17.18
2022-10-13T04:26:28.679Z,17.17
2022-10-13T04:28:57.721Z,17.17
2022-10-13T04:31:26.395Z,17.15
2022-10-13T04:33:55.130Z,17.16
2022-10-13T04:36:24.082Z,17.17
2022-10-13T04:38:53.001Z,17.16
2022-10-13T04:41:22.339Z,17.15
2022-10-13T04:43:53.118Z,17.14
2022-10-13T04:46:24.047Z,17.13
2022-10-13T04:48:55.037Z,17.14
2022-10-13T04:51:27.527Z,17.13
2022-10-13T04:53:56.949Z,17.13
2022-10-13T04:56:25.879Z,17.13
2022-10-13T04:58:55.697Z,17.13
2022-10-13T05:01:25.735Z,17.13
2022-10-13T05:03:55.459Z,17.13
2022-10-13T05:06:25.457Z,17.11
2022-10-13T05:08:57.487Z,17.11
2022-10-13T05:11:27.200Z,17.11
2022-10-13T05:13:57.922Z,17.09
2022-10-13T05:16:26.911Z,17.09
2022-10-13T05:18:56.043Z,17.08
2022-10-13T05:21:26.268Z,17.09
2022-10-13T05:23:55.961Z,17.08
2022-10-13T05:26:29.081Z,17.07
2022-10-13T05:29:00.102Z,17.08
2022-10-13T05:31:36.656Z,17.05
2022-10-13T05:34:05.282Z,17.05
2022-10-13T05:36:35.565Z,17.05
2022-10-13T05:39:07.419Z,17.06
2022-10-13T05:41:35.683Z,17.05
2022-10-13T05:44:10.151Z,17.04
2022-10-13T05:46:43.930Z,17.04
2022-10-13T05:49:12.340Z,17.03
2022-10-13T05:51:42.877Z,17.02
2022-10-13T05:54:15.244Z,17.01
2022-10-13T05:56:45.846Z,17.02
2022-10-13T05:59:17.386Z,17.00
2022-10-13T06:01:49.111Z,16.99
2022-10-13T06:04:22.203Z,16.99
2022-10-13T06:06:51.114Z,16.99
2022-10-13T06:09:19.770Z,17.00
2022-10-13T06:11:48.169Z,16.99
2022-10-13T06:14:17.742Z,16.99
2022-10-13T06:16:46.143Z,16.98
2022-10-13T06:19:14.531Z,16.99
2022-10-13T06:21:42.960Z,17.00
2022-10-13T06:24:11.468Z,16.97
2022-10-13T06:26:39.818Z,16.98
2022-10-13T06:29:10.780Z,16.98
2022-10-13T06:31:40.457Z,16.98
2022-10-13T06:34:09.032Z,16.98
2022-10-13T06:36:38.113Z,16.97
2022-10-13T06:39:06.565Z,16.96
2022-10-13T06:41:35.010Z,16.95
2022-10-13T06:44:03.577Z,16.96
2022-10-13T06:46:32.061Z,16.95
2022-10-13T06:49:01.777Z,16.94
2022-10-13T06:51:31.022Z,16.95
2022-10-13T06:53:59.601Z,16.95
2022-10-13T06:56:30.173Z,16.94
2022-10-13T06:59:00.409Z,16.95
2022-10-13T07:01:28.865Z,16.95
2022-10-13T07:03:57.490Z,16.94
2022-10-13T07:06:27.337Z,16.95
2022-10-13T07:08:55.897Z,16.96
2022-10-13T07:11:24.457Z,16.95
2022-10-13T07:13:58.355Z,16.93
2022-10-13T07:16:27.040Z,16.93
2022-10-13T07:18:55.454Z,16.94
2022-10-13T07:21:24.462Z,16.93
2022-10-13T07:23:54.388Z,16.93
2022-10-13T07:26:22.788Z,16.91
2022-10-13T07:28:51.480Z,16.92
2022-10-13T07:31:21.334Z,16.93
2022-10-13T07:33:51.397Z,16.93
2022-10-13T07:36:20.048Z,16.92
2022-10-13T07:38:48.441Z,16.93
2022-10-13T07:41:18.463Z,16.91
2022-10-13T07:43:47.231Z,16.90
2022-10-13T07:46:16.615Z,16.91
2022-10-13T07:48:45.013Z,16.90
2022-10-13T07:51:14.232Z,16.91
2022-10-13T07:53:43.759Z,16.90
2022-10-13T07:56:13.902Z,16.91
2022-10-13T07:58:46.337Z,16.92
2022-10-13T08:01:18.757Z,16.92
2022-10-13T08:03:50.255Z,16.90
2022-10-13T08:06:20.432Z,16.91
2022-10-13T08:08:48.961Z,16.90
2022-10-13T08:11:20.485Z,16.90
2022-10-13T08:13:52.299Z,16.89
2022-10-13T08:16:24.099Z,16.90
2022-10-13T08:18:52.983Z,16.89
2022-10-13T08:24:14.991Z,16.91
2022-10-13T08:26:44.504Z,16.91
2022-10-13T08:29:21.960Z,16.91
2022-10-13T08:31:52.046Z,16.92
2022-10-13T08:34:21.516Z,16.92
2022-10-13T08:36:52.791Z,16.93
2022-10-13T08:39:22.116Z,16.92
2022-10-13T08:41:51.003Z,16.91
2022-10-13T08:47:22.479Z,16.94
2022-10-13T08:49:51.095Z,16.94
2022-10-13T08:52:21.960Z,16.93
2022-10-13T08:54:51.420Z,16.95
2022-10-13T08:57:21.960Z,16.96
2022-10-13T08:59:53.438Z,16.96
2022-10-13T09:02:27.129Z,16.96
2022-10-13T09:04:55.556Z,16.96
2022-10-13T09:07:26.141Z,16.97
2022-10-13T09:09:56.251Z,16.98
2022-10-13T09:12:26.140Z,16.99
2022-10-13T09:15:01.473Z,16.99
2022-10-13T09:17:30.833Z,16.99
2022-10-13T09:20:02.162Z,16.99
2022-10-13T09:22:32.324Z,16.99
2022-10-13T09:25:18.521Z,16.98
2022-10-13T09:27:50.179Z,16.99
2022-10-13T09:30:34.421Z,16.99
2022-10-13T09:33:22.723Z,16.99
2022-10-13T09:36:07.825Z,17.00
2022-10-13T09:38:36.510Z,17.00
2022-10-13T09:41:07.255Z,17.01
2022-10-13T09:43:39.517Z,17.01
2022-10-13T09:46:20.586Z,17.01
2022-10-13T09:48:50.683Z,17.01
2022-10-13T09:51:34.830Z,17.02
2022-10-13T09:54:27.023Z,17.01
2022-10-13T09:56:58.824Z,17.02
2022-10-13T09:59:36.067Z,17.04
2022-10-13T10:02:21.258Z,17.03
2022-10-13T10:04:53.296Z,17.04
2022-10-13T10:07:24.408Z,17.04
2022-10-13T10:09:56.154Z,17.05
2022-10-13T10:12:28.108Z,17.09
2022-10-13T10:14:56.790Z,17.09
2022-10-13T10:17:31.588Z,17.08
2022-10-13T10:20:07.920Z,17.09
2022-10-13T10:22:41.598Z,17.11
2022-10-13T10:25:25.797Z,17.12
2022-10-13T10:28:06.452Z,17.13
2022-10-13T10:30:36.719Z,17.15
2022-10-13T10:33:12.132Z,17.15
2022-10-13T10:35:45.133Z,17.17
2022-10-13T10:38:23.868Z,17.19
2022-10-13T10:40:58.084Z,17.20
2022-10-13T10:43:43.255Z,17.23
2022-10-13T10:46:18.081Z,17.26
2022-10-13T10:48:50.295Z,17.25
2022-10-13T10:51:20.052Z,17.23
2022-10-13T10:53:59.003Z,17.23
2022-10-13T10:56:32.522Z,17.24
2022-10-13T10:59:17.146Z,17.23
2022-10-13T11:01:52.228Z,17.24
2022-10-13T11:04:36.772Z,17.25
2022-10-13T11:07:05.605Z,17.24
2022-10-13T11:10:02.778Z,17.27
2022-10-13T11:12:48.433Z,17.27
2022-10-13T11:15:22.882Z,17.29
2022-10-13T11:17:52.188Z,17.31
2022-10-13T11:20:57.267Z,17.31
2022-10-13T11:23:33.406Z,17.32
2022-10-13T11:26:21.143Z,17.34
2022-10-13T11:28:50.206Z,17.35
2022-10-13T11:31:32.092Z,17.38
2022-10-13T11:34:03.781Z,17.39
2022-10-13T11:36:49.225Z,17.40
2022-10-13T11:39:55.544Z,17.39
2022-10-13T11:42:45.637Z,17.42
2022-10-13T11:45:23.314Z,17.49
2022-10-13T11:48:10.847Z,17.52
2022-10-13T11:50:44.131Z,17.53
2022-10-13T11:53:17.377Z,17.55
2022-10-13T11:55:50.206Z,17.55
2022-10-13T11:58:21.350Z,17.59
2022-10-13T12:00:55.015Z,17.61
2022-10-13T12:03:26.632Z,17.61
2022-10-13T12:05:58.104Z,17.61
2022-10-13T12:08:29.085Z,17.60
2022-10-13T12:11:00.072Z,17.60
2022-10-13T12:13:31.513Z,17.60
2022-10-13T12:16:03.422Z,17.61
2022-10-13T12:18:34.506Z,17.61
2022-10-13T12:21:04.815Z,17.61
2022-10-13T12:23:34.728Z,17.62
2022-10-13T12:26:03.497Z,17.61
2022-10-13T12:28:47.487Z,17.62
2022-10-13T12:31:19.909Z,17.62
2022-10-13T12:33:53.707Z,17.63
2022-10-13T12:36:24.173Z,17.63
2022-10-13T12:38:56.138Z,17.65
2022-10-13T12:41:27.104Z,17.64
2022-10-13T12:43:55.908Z,17.66
2022-10-13T12:46:36.801Z,17.67
2022-10-13T12:49:06.379Z,17.69
2022-10-13T12:51:35.500Z,17.69
2022-10-13T12:54:09.817Z,17.70
2022-10-13T12:56:38.314Z,17.70
2022-10-13T12:59:07.107Z,17.72
2022-10-13T13:01:36.392Z,17.73
2022-10-13T13:04:17.743Z,17.75
2022-10-13T13:06:56.501Z,17.77
2022-10-13T13:09:28.352Z,17.78
2022-10-13T13:12:24.070Z,17.79
2022-10-13T13:14:54.911Z,17.80
2022-10-13T13:20:24.450Z,17.80
2022-10-13T13:23:15.833Z,17.80
2022-10-13T13:25:59.512Z,17.79
2022-10-13T13:31:39.367Z,17.81
2022-10-13T13:34:19.900Z,17.80
2022-10-13T13:36:54.854Z,17.81
2022-10-13T13:39:24.891Z,17.83
2022-10-13T13:41:54.706Z,17.84
2022-10-13T13:44:23.473Z,17.85
2022-10-13T13:46:52.333Z,17.86
2022-10-13T13:49:20.955Z,17.86
2022-10-13T13:51:49.379Z,17.87
2022-10-13T13:54:17.955Z,17.87
2022-10-13T13:56:46.749Z,17.88
2022-10-13T13:59:18.579Z,17.89
2022-10-13T14:01:48.484Z,17.90
2022-10-13T14:04:16.957Z,17.90
2022-10-13T14:06:45.361Z,17.92
2022-10-13T14:09:13.880Z,17.92
2022-10-13T14:11:42.277Z,17.92
2022-10-13T14:14:10.763Z,17.92
2022-10-13T14:16:41.485Z,17.94
2022-10-13T14:19:10.581Z,17.94
2022-10-13T14:21:39.044Z,17.95
2022-10-13T14:24:13.648Z,17.95
2022-10-13T14:26:42.343Z,17.95
2022-10-13T14:29:10.721Z,17.95
2022-10-13T14:31:40.396Z,17.95
2022-10-13T14:34:08.858Z,17.94
2022-10-13T14:36:38.142Z,17.94
2022-10-13T14:39:06.538Z,17.95
2022-10-13T14:41:35.221Z,17.95
2022-10-13T14:44:03.579Z,17.95
2022-10-13T14:46:32.004Z,17.96
2022-10-13T14:49:01.660Z,17.95
2022-10-13T14:51:30.152Z,17.96
2022-10-13T14:53:58.646Z,17.98
2022-10-13T14:56:30.007Z,18.00
2022-10-13T14:59:00.654Z,18.00
2022-10-13T15:01:38.530Z,18.03
2022-10-13T15:04:08.945Z,18.04
2022-10-13T15:06:40.131Z,18.06
2022-10-13T15:11:38.051Z,18.05
2022-10-13T15:14:07.482Z,18.05
2022-10-13T15:16:37.569Z,18.06
2022-10-13T15:19:12.709Z,18.05
2022-10-13T15:21:42.673Z,18.05
2022-10-13T15:24:12.189Z,18.04
2022-10-13T15:26:43.964Z,18.06
2022-10-13T15:29:12.487Z,18.06
2022-10-13T15:31:41.117Z,18.05
2022-10-13T15:34:11.337Z,18.05
2022-10-13T15:36:40.035Z,18.06
2022-10-13T15:39:14.476Z,18.04
2022-10-13T15:42:01.530Z,18.05
2022-10-13T15:45:10.482Z,18.04
2022-10-13T15:47:43.936Z,18.04
2022-10-13T15:50:15.066Z,18.04
2022-10-13T15:52:43.832Z,18.03
2022-10-13T15:55:13.584Z,18.04
2022-10-13T15:57:42.274Z,18.04
2022-10-13T16:00:13.646Z,18.03
2022-10-13T16:02:43.437Z,18.03
2022-10-13T16:05:14.462Z,18.02
2022-10-13T16:07:43.554Z,18.03
2022-10-13T16:10:13.973Z,18.03
2022-10-13T16:12:49.199Z,18.03
2022-10-13T16:15:18.768Z,18.03
2022-10-13T16:17:47.319Z,18.03
2022-10-13T16:20:17.465Z,18.03
2022-10-13T16:22:47.204Z,18.02
2022-10-13T16:25:16.023Z,18.02
2022-10-13T16:27:47.128Z,18.02
2022-10-13T16:30:15.864Z,18.02
2022-10-13T16:32:46.261Z,18.02
2022-10-13T16:35:14.916Z,18.01
2022-10-13T16:37:44.603Z,18.02
2022-10-13T16:40:13.112Z,18.02
2022-10-13T16:42:42.256Z,18.01
2022-10-13T16:45:10.950Z,18.02
2022-10-13T16:47:39.454Z,18.02
2022-10-13T16:50:09.782Z,18.01
2022-10-13T16:52:38.507Z,18.01
2022-10-13T16:55:09.811Z,18.00
2022-10-13T16:57:38.286Z,17.99
2022-10-13T17:00:08.186Z,17.98
2022-10-13T17:02:36.879Z,17.97
2022-10-13T17:05:05.768Z,17.98
2022-10-13T17:07:34.391Z,17.98
2022-10-13T17:10:04.121Z,17.97
2022-10-13T17:12:33.898Z,17.98
2022-10-13T17:15:02.414Z,17.97
2022-10-13T17:17:32.131Z,17.97
2022-10-13T17:20:00.663Z,17.98
2022-10-13T17:22:29.398Z,17.98
2022-10-13T17:24:58.094Z,17.97
2022-10-13T17:27:26.730Z,17.98
2022-10-13T17:29:56.853Z,17.96
2022-10-13T17:32:25.478Z,17.97
2022-10-13T17:34:53.852Z,17.96
2022-10-13T17:37:22.870Z,17.97
2022-10-13T17:39:51.680Z,17.96
2022-10-13T17:42:20.242Z,17.97
2022-10-13T17:44:49.540Z,17.96
2022-10-13T17:47:19.614Z,17.95
2022-10-13T17:49:48.624Z,17.95
2022-10-13T17:52:17.599Z,17.94
2022-10-13T17:54:47.824Z,17.95
2022-10-13T17:57:16.580Z,17.94
2022-10-13T17:59:45.278Z,17.94
2022-10-13T18:02:13.953Z,17.94
2022-10-13T18:04:44.008Z,17.94
2022-10-13T18:07:12.372Z,17.93
2022-10-13T18:09:41.052Z,17.92
2022-10-13T18:12:09.941Z,17.92
2022-10-13T18:14:38.507Z,17.93
2022-10-13T18:17:07.089Z,17.92
2022-10-13T18:19:40.116Z,17.91
2022-10-13T18:22:10.222Z,17.89
2022-10-13T18:24:39.412Z,17.91
2022-10-13T18:27:09.157Z,17.91
2022-10-13T18:29:39.201Z,17.89
2022-10-13T18:32:07.665Z,17.88
2022-10-13T18:34:36.152Z,17.89
2022-10-13T18:37:05.517Z,17.89
2022-10-13T18:39:35.231Z,17.88
2022-10-13T18:42:03.601Z,17.88
2022-10-13T18:44:37.723Z,17.87
2022-10-13T18:47:06.887Z,17.87
2022-10-13T18:49:35.476Z,17.87
2022-10-13T18:52:04.346Z,17.85
2022-10-13T18:54:32.860Z,17.85
2022-10-13T18:57:02.826Z,17.84
2022-10-13T18:59:31.260Z,17.86
2022-10-13T19:01:59.751Z,17.85
2022-10-13T19:04:28.264Z,17.85
2022-10-13T19:06:56.688Z,17.83
2022-10-13T19:09:26.257Z,17.85
2022-10-13T19:11:56.232Z,17.84
2022-10-13T19:14:27.556Z,17.82
2022-10-13T19:17:00.988Z,17.82
2022-10-13T19:19:31.351Z,17.82
2022-10-13T19:22:02.166Z,17.82
2022-10-13T19:24:30.675Z,17.81
2022-10-13T19:26:59.071Z,17.82
2022-10-13T19:29:30.416Z,17.80
2022-10-13T19:31:59.007Z,17.80
2022-10-13T19:34:27.573Z,17.80
2022-10-13T19:36:59.211Z,17.79
2022-10-13T19:39:27.688Z,17.79
2022-10-13T19:41:57.475Z,17.78
2022-10-13T19:44:27.872Z,17.78
2022-10-13T19:46:56.359Z,17.77
2022-10-13T19:49:26.428Z,17.78
2022-10-13T19:51:55.988Z,17.76
2022-10-13T19:54:26.321Z,17.77
2022-10-13T19:56:57.099Z,17.76
2022-10-13T19:59:25.613Z,17.76
2022-10-13T20:01:56.595Z,17.75
2022-10-13T20:04:25.092Z,17.75
2022-10-13T20:06:53.750Z,17.73
2022-10-13T20:09:22.721Z,17.73
2022-10-13T20:11:52.427Z,17.73
2022-10-13T20:14:21.108Z,17.72
2022-10-13T20:16:49.958Z,17.73
2022-10-13T20:19:20.174Z,17.71
2022-10-13T20:21:51.505Z,17.72
2022-10-13T20:24:20.424Z,17.72
2022-10-13T20:26:48.912Z,17.70
2022-10-13T20:29:19.371Z,17.71
2022-10-13T20:31:47.897Z,17.71
2022-10-13T20:34:16.345Z,17.69
2022-10-13T20:36:46.265Z,17.69
2022-10-13T20:39:14.591Z,17.69
2022-10-13T20:41:43.697Z,17.69
2022-10-13T20:44:12.951Z,17.69
2022-10-13T20:46:41.331Z,17.69
2022-10-13T20:49:11.784Z,17.70
2022-10-13T20:51:41.155Z,17.68
2022-10-13T20:54:11.484Z,17.70
2022-10-13T20:56:40.524Z,17.68
2022-10-13T20:59:11.289Z,17.68
2022-10-13T21:01:39.714Z,17.67
2022-10-13T21:04:08.188Z,17.67
2022-10-13T21:06:37.209Z,17.66
2022-10-13T21:09:06.804Z,17.66
2022-10-13T21:11:37.495Z,17.65
2022-10-13T21:14:07.009Z,17.66
2022-10-13T21:16:35.599Z,17.65
2022-10-13T21:19:07.912Z,17.65
2022-10-13T21:21:37.772Z,17.64
2022-10-13T21:24:08.099Z,17.65
2022-10-13T21:26:38.358Z,17.63
2022-10-13T21:29:07.108Z,17.64
2022-10-13T21:31:36.353Z,17.64
2022-10-13T21:34:05.120Z,17.62
2022-10-13T21:36:34.109Z,17.61
2022-10-13T21:39:04.454Z,17.61
2022-10-13T21:41:34.176Z,17.60
2022-10-13T21:44:04.157Z,17.61
2022-10-13T21:46:35.277Z,17.60
2022-10-13T21:49:07.139Z,17.60
2022-10-13T21:51:38.104Z,17.59
2022-10-13T21:54:08.644Z,17.59
2022-10-13T21:56:38.525Z,17.57
2022-10-13T21:59:09.156Z,17.58
2022-10-13T22:01:37.529Z,17.57
2022-10-13T22:04:11.251Z,17.57
2022-10-13T22:06:39.704Z,17.56
2022-10-13T22:09:08.041Z,17.57
2022-10-13T22:11:37.805Z,17.56
2022-10-13T22:14:13.366Z,17.55
2022-10-13T22:16:43.408Z,17.54
2022-10-13T22:19:12.142Z,17.54
2022-10-13T22:21:41.847Z,17.54
2022-10-13T22:24:12.565Z,17.54
2022-10-13T22:26:41.994Z,17.54
2022-10-13T22:29:11.871Z,17.53
2022-10-13T22:31:42.096Z,17.52
2022-10-13T22:34:11.437Z,17.52
2022-10-13T22:36:44.414Z,17.52
2022-10-13T22:39:14.284Z,17.51
2022-10-13T22:41:42.813Z,17.51
2022-10-13T22:44:11.367Z,17.50
2022-10-13T22:46:41.614Z,17.50
2022-10-13T22:49:14.985Z,17.50
2022-10-13T22:51:43.304Z,17.50
2022-10-13T22:54:11.824Z,17.49
2022-10-13T22:56:41.589Z,17.49
2022-10-13T22:59:10.406Z,17.49
2022-10-13T23:01:38.684Z,17.48
2022-10-13T23:04:08.331Z,17.48
2022-10-13T23:06:37.221Z,17.47
2022-10-13T23:09:10.106Z,17.47
2022-10-13T23:11:38.704Z,17.47
2022-10-13T23:14:09.104Z,17.47
2022-10-13T23:16:37.551Z,17.46
2022-10-13T23:19:05.951Z,17.44
2022-10-13T23:21:35.567Z,17.45
2022-10-13T23:24:06.652Z,17.46
2022-10-13T23:26:35.511Z,17.44
2022-10-13T23:29:04.687Z,17.44
2022-10-13T23:31:33.515Z,17.44
2022-10-13T23:34:01.990Z,17.42
2022-10-13T23:36:32.485Z,17.40
2022-10-13T23:39:04.359Z,17.43
2022-10-13T23:41:32.918Z,17.41
2022-10-13T23:44:02.230Z,17.40
2022-10-13T23:46:30.885Z,17.40
2022-10-13T23:48:59.407Z,17.40
2022-10-13T23:51:27.949Z,17.39
2022-10-13T23:53:57.611Z,17.40
2022-10-13T23:56:27.700Z,17.40
2022-10-13T23:58:56.075Z,17.39
